sensor_id;sensor_type;location;lat;lon;timestamp;P1;durP1;ratioP1;P2;durP2;ratioP2
29362;SDS011;16349;53.672;10.014;2023-06-14T00:02:23;6.37;;;3.03;;
29362;SDS011;16349;53.672;10.014;2023-06-14T00:04:49;6.47;;;2.80;;
29362;SDS011;16349;53.672;10.014;2023-06-14T00:07:17;4.23;;;2.90;;
29362;SDS011;16349;53.672;10.014;2023-06-14T00:09:49;4.20;;;2.87;;
29362;SDS011;16349;53.672;10.014;2023-06-14T00:12:15;4.97;;;2.90;;
29362;SDS011;16349;53.672;10.014;2023-06-14T00:14:42;4.60;;;2.40;;
29362;SDS011;16349;53.672;10.014;2023-06-14T00:17:09;4.57;;;2.77;;
29362;SDS011;16349;53.672;10.014;2023-06-14T00:19:37;4.13;;;2.63;;
29362;SDS011;16349;53.672;10.014;2023-06-14T00:22:05;3.30;;;3.00;;
29362;SDS011;16349;53.672;10.014;2023-06-14T00:24:32;3.63;;;3.00;;
29362;SDS011;16349;53.672;10.014;2023-06-14T00:26:59;3.63;;;2.73;;
29362;SDS011;16349;53.672;10.014;2023-06-14T00:29:27;4.97;;;3.17;;
29362;SDS011;16349;53.672;10.014;2023-06-14T00:31:54;3.70;;;2.60;;
29362;SDS011;16349;53.672;10.014;2023-06-14T00:34:21;3.77;;;3.00;;
29362;SDS011;16349;53.672;10.014;2023-06-14T00:36:49;5.53;;;3.00;;
29362;SDS011;16349;53.672;10.014;2023-06-14T00:39:15;4.33;;;2.50;;
29362;SDS011;16349;53.672;10.014;2023-06-14T00:41:42;3.70;;;2.70;;
29362;SDS011;16349;53.672;10.014;2023-06-14T00:44:09;6.33;;;3.53;;
29362;SDS011;16349;53.672;10.014;2023-06-14T00:46:36;7.27;;;3.17;;
29362;SDS011;16349;53.672;10.014;2023-06-14T00:49:03;4.23;;;3.20;;
29362;SDS011;16349;53.672;10.014;2023-06-14T00:51:31;7.53;;;2.97;;
29362;SDS011;16349;53.672;10.014;2023-06-14T00:54:00;4.80;;;3.60;;
29362;SDS011;16349;53.672;10.014;2023-06-14T00:56:26;4.90;;;3.63;;
29362;SDS011;16349;53.672;10.014;2023-06-14T00:58:54;6.67;;;3.67;;
29362;SDS011;16349;53.672;10.014;2023-06-14T01:01:22;3.67;;;3.10;;
29362;SDS011;16349;53.672;10.014;2023-06-14T01:03:49;5.13;;;3.20;;
29362;SDS011;16349;53.672;10.014;2023-06-14T01:06:18;3.83;;;3.37;;
29362;SDS011;16349;53.672;10.014;2023-06-14T01:08:57;5.40;;;3.53;;
29362;SDS011;16349;53.672;10.014;2023-06-14T01:11:36;7.60;;;3.60;;
29362;SDS011;16349;53.672;10.014;2023-06-14T01:14:07;4.30;;;3.90;;
29362;SDS011;16349;53.672;10.014;2023-06-14T01:16:36;4.23;;;3.63;;
29362;SDS011;16349;53.672;10.014;2023-06-14T01:19:04;4.67;;;3.90;;
29362;SDS011;16349;53.672;10.014;2023-06-14T01:21:34;6.40;;;3.70;;
29362;SDS011;16349;53.672;10.014;2023-06-14T01:24:08;5.23;;;4.07;;
29362;SDS011;16349;53.672;10.014;2023-06-14T01:26:36;4.53;;;3.80;;
29362;SDS011;16349;53.672;10.014;2023-06-14T01:29:03;4.90;;;3.80;;
29362;SDS011;16349;53.672;10.014;2023-06-14T01:31:31;4.93;;;4.07;;
29362;SDS011;16349;53.672;10.014;2023-06-14T01:34:06;4.87;;;3.83;;
29362;SDS011;16349;53.672;10.014;2023-06-14T01:36:33;5.43;;;4.07;;
29362;SDS011;16349;53.672;10.014;2023-06-14T01:39:02;5.80;;;4.03;;
29362;SDS011;16349;53.672;10.014;2023-06-14T01:41:33;4.23;;;3.80;;
29362;SDS011;16349;53.672;10.014;2023-06-14T01:44:01;5.50;;;4.17;;
29362;SDS011;16349;53.672;10.014;2023-06-14T01:46:31;4.57;;;3.60;;
29362;SDS011;16349;53.672;10.014;2023-06-14T01:48:58;6.20;;;3.87;;
29362;SDS011;16349;53.672;10.014;2023-06-14T01:51:25;5.33;;;3.80;;
29362;SDS011;16349;53.672;10.014;2023-06-14T01:53:53;5.20;;;3.40;;
29362;SDS011;16349;53.672;10.014;2023-06-14T01:56:20;6.40;;;3.70;;
29362;SDS011;16349;53.672;10.014;2023-06-14T01:58:49;4.33;;;3.47;;
29362;SDS011;16349;53.672;10.014;2023-06-14T02:01:16;4.67;;;3.47;;
29362;SDS011;16349;53.672;10.014;2023-06-14T02:03:46;5.97;;;3.77;;
29362;SDS011;16349;53.672;10.014;2023-06-14T02:06:15;6.30;;;3.90;;
29362;SDS011;16349;53.672;10.014;2023-06-14T02:08:41;4.27;;;3.80;;
29362;SDS011;16349;53.672;10.014;2023-06-14T02:11:08;7.67;;;4.00;;
29362;SDS011;16349;53.672;10.014;2023-06-14T02:13:35;7.03;;;3.70;;
29362;SDS011;16349;53.672;10.014;2023-06-14T02:16:03;5.47;;;3.83;;
29362;SDS011;16349;53.672;10.014;2023-06-14T02:18:30;5.70;;;3.50;;
29362;SDS011;16349;53.672;10.014;2023-06-14T02:20:57;3.87;;;3.40;;
29362;SDS011;16349;53.672;10.014;2023-06-14T02:23:24;4.57;;;3.60;;
29362;SDS011;16349;53.672;10.014;2023-06-14T02:25:51;7.03;;;3.73;;
29362;SDS011;16349;53.672;10.014;2023-06-14T02:28:17;4.97;;;3.77;;
29362;SDS011;16349;53.672;10.014;2023-06-14T02:30:46;5.30;;;3.90;;
29362;SDS011;16349;53.672;10.014;2023-06-14T02:33:14;4.60;;;3.70;;
29362;SDS011;16349;53.672;10.014;2023-06-14T02:35:42;4.83;;;3.60;;
29362;SDS011;16349;53.672;10.014;2023-06-14T02:38:09;5.07;;;3.80;;
29362;SDS011;16349;53.672;10.014;2023-06-14T02:40:36;7.27;;;4.17;;
29362;SDS011;16349;53.672;10.014;2023-06-14T02:43:03;9.33;;;4.37;;
29362;SDS011;16349;53.672;10.014;2023-06-14T02:45:31;4.77;;;3.60;;
29362;SDS011;16349;53.672;10.014;2023-06-14T02:47:58;6.03;;;3.63;;
29362;SDS011;16349;53.672;10.014;2023-06-14T02:50:26;6.90;;;4.03;;
29362;SDS011;16349;53.672;10.014;2023-06-14T02:52:55;6.53;;;4.07;;
29362;SDS011;16349;53.672;10.014;2023-06-14T02:55:22;5.07;;;4.30;;
29362;SDS011;16349;53.672;10.014;2023-06-14T02:57:49;5.20;;;3.57;;
29362;SDS011;16349;53.672;10.014;2023-06-14T03:00:16;5.33;;;3.90;;
29362;SDS011;16349;53.672;10.014;2023-06-14T03:02:46;5.20;;;3.30;;
29362;SDS011;16349;53.672;10.014;2023-06-14T03:05:13;6.67;;;3.73;;
29362;SDS011;16349;53.672;10.014;2023-06-14T03:07:42;6.17;;;3.87;;
29362;SDS011;16349;53.672;10.014;2023-06-14T03:10:10;5.27;;;3.37;;
29362;SDS011;16349;53.672;10.014;2023-06-14T03:12:39;7.93;;;3.70;;
29362;SDS011;16349;53.672;10.014;2023-06-14T03:15:08;5.10;;;4.03;;
29362;SDS011;16349;53.672;10.014;2023-06-14T03:17:39;6.37;;;3.83;;
29362;SDS011;16349;53.672;10.014;2023-06-14T03:20:10;7.27;;;4.07;;
29362;SDS011;16349;53.672;10.014;2023-06-14T03:22:37;7.00;;;4.20;;
29362;SDS011;16349;53.672;10.014;2023-06-14T03:25:07;5.97;;;4.30;;
29362;SDS011;16349;53.672;10.014;2023-06-14T03:27:37;6.57;;;4.77;;
29362;SDS011;16349;53.672;10.014;2023-06-14T03:30:04;5.47;;;4.20;;
29362;SDS011;16349;53.672;10.014;2023-06-14T03:32:33;6.63;;;4.20;;
29362;SDS011;16349;53.672;10.014;2023-06-14T03:35:00;6.57;;;4.47;;
29362;SDS011;16349;53.672;10.014;2023-06-14T03:37:27;5.80;;;3.90;;
29362;SDS011;16349;53.672;10.014;2023-06-14T03:39:54;5.07;;;3.43;;
29362;SDS011;16349;53.672;10.014;2023-06-14T03:42:25;6.03;;;4.40;;
29362;SDS011;16349;53.672;10.014;2023-06-14T03:44:52;7.07;;;4.33;;
29362;SDS011;16349;53.672;10.014;2023-06-14T03:47:21;7.53;;;4.30;;
29362;SDS011;16349;53.672;10.014;2023-06-14T03:49:48;12.30;;;5.20;;
29362;SDS011;16349;53.672;10.014;2023-06-14T03:52:15;6.97;;;4.93;;
29362;SDS011;16349;53.672;10.014;2023-06-14T03:54:44;8.20;;;4.67;;
29362;SDS011;16349;53.672;10.014;2023-06-14T03:57:12;6.47;;;4.13;;
29362;SDS011;16349;53.672;10.014;2023-06-14T03:59:41;6.40;;;4.33;;
29362;SDS011;16349;53.672;10.014;2023-06-14T04:02:08;13.40;;;4.60;;
29362;SDS011;16349;53.672;10.014;2023-06-14T04:04:35;6.77;;;4.00;;
29362;SDS011;16349;53.672;10.014;2023-06-14T04:07:04;5.67;;;3.90;;
29362;SDS011;16349;53.672;10.014;2023-06-14T04:09:31;8.33;;;4.20;;
29362;SDS011;16349;53.672;10.014;2023-06-14T04:11:58;7.87;;;4.27;;
29362;SDS011;16349;53.672;10.014;2023-06-14T04:14:25;7.10;;;3.80;;
29362;SDS011;16349;53.672;10.014;2023-06-14T04:16:53;7.73;;;4.50;;
29362;SDS011;16349;53.672;10.014;2023-06-14T04:19:20;7.93;;;4.23;;
29362;SDS011;16349;53.672;10.014;2023-06-14T04:21:47;13.43;;;5.83;;
29362;SDS011;16349;53.672;10.014;2023-06-14T04:24:16;7.87;;;4.23;;
29362;SDS011;16349;53.672;10.014;2023-06-14T04:26:45;5.23;;;3.93;;
29362;SDS011;16349;53.672;10.014;2023-06-14T04:29:16;6.47;;;3.47;;
29362;SDS011;16349;53.672;10.014;2023-06-14T04:31:49;8.40;;;5.00;;
29362;SDS011;16349;53.672;10.014;2023-06-14T04:34:18;6.33;;;3.60;;
29362;SDS011;16349;53.672;10.014;2023-06-14T04:36:51;5.57;;;3.80;;
29362;SDS011;16349;53.672;10.014;2023-06-14T04:39:25;7.70;;;4.37;;
29362;SDS011;16349;53.672;10.014;2023-06-14T04:41:52;6.70;;;4.40;;
29362;SDS011;16349;53.672;10.014;2023-06-14T04:44:22;7.40;;;4.33;;
29362;SDS011;16349;53.672;10.014;2023-06-14T04:46:55;5.67;;;4.23;;
29362;SDS011;16349;53.672;10.014;2023-06-14T04:49:25;6.67;;;4.13;;
29362;SDS011;16349;53.672;10.014;2023-06-14T04:51:52;5.03;;;4.00;;
29362;SDS011;16349;53.672;10.014;2023-06-14T04:54:23;4.23;;;3.73;;
29362;SDS011;16349;53.672;10.014;2023-06-14T04:56:51;6.00;;;4.03;;
29362;SDS011;16349;53.672;10.014;2023-06-14T04:59:23;6.83;;;3.77;;
29362;SDS011;16349;53.672;10.014;2023-06-14T05:01:51;6.53;;;3.60;;
29362;SDS011;16349;53.672;10.014;2023-06-14T05:04:19;6.77;;;3.63;;
29362;SDS011;16349;53.672;10.014;2023-06-14T05:06:47;8.00;;;4.03;;
29362;SDS011;16349;53.672;10.014;2023-06-14T05:09:14;10.03;;;4.37;;
29362;SDS011;16349;53.672;10.014;2023-06-14T05:11:43;7.60;;;4.33;;
29362;SDS011;16349;53.672;10.014;2023-06-14T05:14:11;5.37;;;3.73;;
29362;SDS011;16349;53.672;10.014;2023-06-14T05:16:38;9.50;;;4.10;;
29362;SDS011;16349;53.672;10.014;2023-06-14T05:19:05;5.77;;;3.57;;
29362;SDS011;16349;53.672;10.014;2023-06-14T05:21:32;7.10;;;4.00;;
29362;SDS011;16349;53.672;10.014;2023-06-14T05:24:01;5.40;;;3.27;;
29362;SDS011;16349;53.672;10.014;2023-06-14T05:26:27;5.17;;;3.30;;
29362;SDS011;16349;53.672;10.014;2023-06-14T05:28:55;8.87;;;3.77;;
29362;SDS011;16349;53.672;10.014;2023-06-14T05:31:22;7.53;;;4.00;;
29362;SDS011;16349;53.672;10.014;2023-06-14T05:33:51;6.90;;;4.10;;
29362;SDS011;16349;53.672;10.014;2023-06-14T05:36:18;8.37;;;4.13;;
29362;SDS011;16349;53.672;10.014;2023-06-14T05:38:46;7.20;;;4.03;;
29362;SDS011;16349;53.672;10.014;2023-06-14T05:41:14;5.87;;;3.47;;
29362;SDS011;16349;53.672;10.014;2023-06-14T05:43:41;8.00;;;4.17;;
29362;SDS011;16349;53.672;10.014;2023-06-14T05:46:08;6.70;;;3.87;;
29362;SDS011;16349;53.672;10.014;2023-06-14T05:48:35;4.23;;;3.40;;
29362;SDS011;16349;53.672;10.014;2023-06-14T05:51:01;5.07;;;3.57;;
29362;SDS011;16349;53.672;10.014;2023-06-14T05:53:28;6.60;;;3.80;;
29362;SDS011;16349;53.672;10.014;2023-06-14T05:55:55;5.80;;;3.13;;
29362;SDS011;16349;53.672;10.014;2023-06-14T05:58:23;6.77;;;3.20;;
29362;SDS011;16349;53.672;10.014;2023-06-14T06:00:50;5.70;;;3.30;;
29362;SDS011;16349;53.672;10.014;2023-06-14T06:03:18;5.93;;;3.20;;
29362;SDS011;16349;53.672;10.014;2023-06-14T06:05:46;5.60;;;3.37;;
29362;SDS011;16349;53.672;10.014;2023-06-14T06:08:13;4.90;;;2.97;;
29362;SDS011;16349;53.672;10.014;2023-06-14T06:10:41;4.63;;;3.20;;
29362;SDS011;16349;53.672;10.014;2023-06-14T06:13:09;5.90;;;3.27;;
29362;SDS011;16349;53.672;10.014;2023-06-14T06:15:37;6.83;;;2.87;;
29362;SDS011;16349;53.672;10.014;2023-06-14T06:18:04;6.37;;;2.80;;
29362;SDS011;16349;53.672;10.014;2023-06-14T06:20:31;6.27;;;3.10;;
29362;SDS011;16349;53.672;10.014;2023-06-14T06:22:58;4.83;;;2.87;;
29362;SDS011;16349;53.672;10.014;2023-06-14T06:25:26;4.10;;;2.60;;
29362;SDS011;16349;53.672;10.014;2023-06-14T06:27:53;4.77;;;2.73;;
29362;SDS011;16349;53.672;10.014;2023-06-14T06:30:21;2.80;;;2.60;;
29362;SDS011;16349;53.672;10.014;2023-06-14T06:32:49;6.50;;;2.63;;
29362;SDS011;16349;53.672;10.014;2023-06-14T06:35:16;2.97;;;2.40;;
29362;SDS011;16349;53.672;10.014;2023-06-14T06:37:43;4.22;;;2.80;;
29362;SDS011;16349;53.672;10.014;2023-06-14T06:40:10;3.17;;;2.30;;
29362;SDS011;16349;53.672;10.014;2023-06-14T06:42:37;5.33;;;2.67;;
29362;SDS011;16349;53.672;10.014;2023-06-14T06:45:05;5.10;;;2.10;;
29362;SDS011;16349;53.672;10.014;2023-06-14T06:47:32;4.10;;;2.63;;
29362;SDS011;16349;53.672;10.014;2023-06-14T06:50:00;5.00;;;2.40;;
29362;SDS011;16349;53.672;10.014;2023-06-14T06:52:27;2.70;;;2.50;;
29362;SDS011;16349;53.672;10.014;2023-06-14T06:54:54;5.23;;;2.53;;
29362;SDS011;16349;53.672;10.014;2023-06-14T06:57:22;5.10;;;2.53;;
29362;SDS011;16349;53.672;10.014;2023-06-14T06:59:49;4.17;;;2.33;;
29362;SDS011;16349;53.672;10.014;2023-06-14T07:02:16;3.30;;;2.20;;
29362;SDS011;16349;53.672;10.014;2023-06-14T07:04:43;4.50;;;2.20;;
29362;SDS011;16349;53.672;10.014;2023-06-14T07:07:11;4.57;;;2.70;;
29362;SDS011;16349;53.672;10.014;2023-06-14T07:09:38;4.87;;;2.60;;
29362;SDS011;16349;53.672;10.014;2023-06-14T07:12:06;4.40;;;2.50;;
29362;SDS011;16349;53.672;10.014;2023-06-14T07:14:34;3.27;;;2.10;;
29362;SDS011;16349;53.672;10.014;2023-06-14T07:17:01;3.23;;;2.17;;
29362;SDS011;16349;53.672;10.014;2023-06-14T07:19:27;2.73;;;2.37;;
29362;SDS011;16349;53.672;10.014;2023-06-14T07:21:55;4.37;;;2.20;;
29362;SDS011;16349;53.672;10.014;2023-06-14T07:24:24;2.87;;;2.43;;
29362;SDS011;16349;53.672;10.014;2023-06-14T07:26:53;5.27;;;2.53;;
29362;SDS011;16349;53.672;10.014;2023-06-14T07:29:21;2.23;;;2.00;;
29362;SDS011;16349;53.672;10.014;2023-06-14T07:31:48;4.67;;;2.17;;
29362;SDS011;16349;53.672;10.014;2023-06-14T07:34:15;2.33;;;2.13;;
29362;SDS011;16349;53.672;10.014;2023-06-14T07:36:42;5.93;;;2.37;;
29362;SDS011;16349;53.672;10.014;2023-06-14T07:39:10;2.97;;;1.97;;
29362;SDS011;16349;53.672;10.014;2023-06-14T07:41:38;2.83;;;2.10;;
29362;SDS011;16349;53.672;10.014;2023-06-14T07:44:05;3.27;;;1.90;;
29362;SDS011;16349;53.672;10.014;2023-06-14T07:46:31;2.30;;;2.10;;
29362;SDS011;16349;53.672;10.014;2023-06-14T07:48:59;3.37;;;2.00;;
29362;SDS011;16349;53.672;10.014;2023-06-14T07:51:26;5.80;;;2.20;;
29362;SDS011;16349;53.672;10.014;2023-06-14T07:53:53;2.67;;;2.10;;
29362;SDS011;16349;53.672;10.014;2023-06-14T07:56:20;3.77;;;2.13;;
29362;SDS011;16349;53.672;10.014;2023-06-14T07:58:49;5.17;;;2.53;;
29362;SDS011;16349;53.672;10.014;2023-06-14T08:01:16;3.03;;;2.00;;
29362;SDS011;16349;53.672;10.014;2023-06-14T08:03:45;2.57;;;2.10;;
29362;SDS011;16349;53.672;10.014;2023-06-14T08:06:12;3.40;;;2.00;;
29362;SDS011;16349;53.672;10.014;2023-06-14T08:08:38;2.27;;;2.07;;
29362;SDS011;16349;53.672;10.014;2023-06-14T08:11:05;4.87;;;2.30;;
29362;SDS011;16349;53.672;10.014;2023-06-14T08:13:32;3.67;;;2.10;;
29362;SDS011;16349;53.672;10.014;2023-06-14T08:16:01;4.33;;;2.30;;
29362;SDS011;16349;53.672;10.014;2023-06-14T08:18:30;3.87;;;2.03;;
29362;SDS011;16349;53.672;10.014;2023-06-14T08:20:56;3.10;;;1.97;;
29362;SDS011;16349;53.672;10.014;2023-06-14T08:23:23;3.23;;;1.97;;
29362;SDS011;16349;53.672;10.014;2023-06-14T08:25:50;4.10;;;2.40;;
29362;SDS011;16349;53.672;10.014;2023-06-14T08:28:17;4.67;;;2.47;;
29362;SDS011;16349;53.672;10.014;2023-06-14T08:30:44;6.13;;;2.40;;
29362;SDS011;16349;53.672;10.014;2023-06-14T08:33:12;3.30;;;2.10;;
29362;SDS011;16349;53.672;10.014;2023-06-14T08:35:39;3.03;;;1.97;;
29362;SDS011;16349;53.672;10.014;2023-06-14T08:38:06;3.93;;;2.07;;
29362;SDS011;16349;53.672;10.014;2023-06-14T08:40:33;5.23;;;2.10;;
29362;SDS011;16349;53.672;10.014;2023-06-14T08:43:03;3.53;;;2.20;;
29362;SDS011;16349;53.672;10.014;2023-06-14T08:45:30;4.37;;;2.00;;
29362;SDS011;16349;53.672;10.014;2023-06-14T08:47:57;4.60;;;2.20;;
29362;SDS011;16349;53.672;10.014;2023-06-14T08:50:27;3.47;;;2.07;;
29362;SDS011;16349;53.672;10.014;2023-06-14T08:52:56;5.83;;;2.57;;
29362;SDS011;16349;53.672;10.014;2023-06-14T08:55:25;2.50;;;1.97;;
29362;SDS011;16349;53.672;10.014;2023-06-14T08:57:54;2.27;;;1.90;;
29362;SDS011;16349;53.672;10.014;2023-06-14T09:00:22;3.50;;;2.43;;
29362;SDS011;16349;53.672;10.014;2023-06-14T09:02:50;4.43;;;2.40;;
29362;SDS011;16349;53.672;10.014;2023-06-14T09:05:21;3.57;;;2.03;;
29362;SDS011;16349;53.672;10.014;2023-06-14T09:07:50;6.07;;;2.23;;
29362;SDS011;16349;53.672;10.014;2023-06-14T09:10:17;3.90;;;2.23;;
29362;SDS011;16349;53.672;10.014;2023-06-14T09:12:46;3.77;;;2.47;;
29362;SDS011;16349;53.672;10.014;2023-06-14T09:15:13;4.67;;;1.97;;
29362;SDS011;16349;53.672;10.014;2023-06-14T09:17:40;4.40;;;2.60;;
29362;SDS011;16349;53.672;10.014;2023-06-14T09:20:08;3.57;;;2.33;;
29362;SDS011;16349;53.672;10.014;2023-06-14T09:22:36;2.60;;;2.40;;
29362;SDS011;16349;53.672;10.014;2023-06-14T09:25:05;2.70;;;2.33;;
29362;SDS011;16349;53.672;10.014;2023-06-14T09:27:32;5.23;;;2.43;;
29362;SDS011;16349;53.672;10.014;2023-06-14T09:30:01;3.03;;;2.33;;
29362;SDS011;16349;53.672;10.014;2023-06-14T09:32:29;5.50;;;2.10;;
29362;SDS011;16349;53.672;10.014;2023-06-14T09:34:56;3.37;;;2.23;;
29362;SDS011;16349;53.672;10.014;2023-06-14T09:37:30;4.17;;;2.57;;
29362;SDS011;16349;53.672;10.014;2023-06-14T09:39:58;4.90;;;2.40;;
29362;SDS011;16349;53.672;10.014;2023-06-14T09:42:26;3.23;;;2.40;;
29362;SDS011;16349;53.672;10.014;2023-06-14T09:44:55;5.47;;;2.50;;
29362;SDS011;16349;53.672;10.014;2023-06-14T09:47:23;3.07;;;2.40;;
29362;SDS011;16349;53.672;10.014;2023-06-14T09:49:51;2.40;;;2.00;;
29362;SDS011;16349;53.672;10.014;2023-06-14T09:52:20;4.50;;;2.30;;
29362;SDS011;16349;53.672;10.014;2023-06-14T09:54:48;3.93;;;2.27;;
29362;SDS011;16349;53.672;10.014;2023-06-14T09:57:16;5.00;;;2.70;;
29362;SDS011;16349;53.672;10.014;2023-06-14T09:59:49;2.95;;;2.50;;
29362;SDS011;16349;53.672;10.014;2023-06-14T10:02:24;2.60;;;2.40;;
29362;SDS011;16349;53.672;10.014;2023-06-14T10:04:55;3.60;;;2.37;;
29362;SDS011;16349;53.672;10.014;2023-06-14T10:07:26;2.58;;;2.38;;
29362;SDS011;16349;53.672;10.014;2023-06-14T10:09:56;3.55;;;2.42;;
29362;SDS011;16349;53.672;10.014;2023-06-14T10:12:23;5.60;;;2.50;;
29362;SDS011;16349;53.672;10.014;2023-06-14T10:14:52;17.27;;;6.93;;
29362;SDS011;16349;53.672;10.014;2023-06-14T10:17:23;5.90;;;2.95;;
29362;SDS011;16349;53.672;10.014;2023-06-14T10:20:01;4.82;;;2.60;;
29362;SDS011;16349;53.672;10.014;2023-06-14T10:22:37;6.60;;;2.75;;
29362;SDS011;16349;53.672;10.014;2023-06-14T10:25:12;2.50;;;2.30;;
29362;SDS011;16349;53.672;10.014;2023-06-14T10:27:40;3.28;;;2.20;;
29362;SDS011;16349;53.672;10.014;2023-06-14T10:30:14;3.10;;;2.47;;
29362;SDS011;16349;53.672;10.014;2023-06-14T10:35:29;4.95;;;2.55;;
29362;SDS011;16349;53.672;10.014;2023-06-14T10:38:05;3.17;;;2.20;;
29362;SDS011;16349;53.672;10.014;2023-06-14T10:40:33;6.68;;;2.38;;
29362;SDS011;16349;53.672;10.014;2023-06-14T10:43:01;3.85;;;2.53;;
29362;SDS011;16349;53.672;10.014;2023-06-14T10:48:42;3.97;;;3.15;;
29362;SDS011;16349;53.672;10.014;2023-06-14T10:51:15;2.40;;;2.20;;
29362;SDS011;16349;53.672;10.014;2023-06-14T10:53:45;4.50;;;2.42;;
29362;SDS011;16349;53.672;10.014;2023-06-14T10:56:23;4.38;;;2.50;;
29362;SDS011;16349;53.672;10.014;2023-06-14T10:58:53;4.53;;;2.25;;
29362;SDS011;16349;53.672;10.014;2023-06-14T11:01:27;5.93;;;2.83;;
29362;SDS011;16349;53.672;10.014;2023-06-14T11:04:09;5.15;;;2.22;;
29362;SDS011;16349;53.672;10.014;2023-06-14T11:06:46;6.63;;;2.50;;
29362;SDS011;16349;53.672;10.014;2023-06-14T11:09:24;4.18;;;2.47;;
29362;SDS011;16349;53.672;10.014;2023-06-14T11:12:10;4.35;;;2.58;;
29362;SDS011;16349;53.672;10.014;2023-06-14T11:14:38;2.17;;;1.98;;
29362;SDS011;16349;53.672;10.014;2023-06-14T11:17:06;2.92;;;2.38;;
29362;SDS011;16349;53.672;10.014;2023-06-14T11:19:33;2.58;;;2.28;;
29362;SDS011;16349;53.672;10.014;2023-06-14T11:22:01;4.47;;;2.42;;
29362;SDS011;16349;53.672;10.014;2023-06-14T11:24:28;7.50;;;2.30;;
29362;SDS011;16349;53.672;10.014;2023-06-14T11:26:55;2.38;;;1.90;;
29362;SDS011;16349;53.672;10.014;2023-06-14T11:29:23;4.82;;;2.33;;
29362;SDS011;16349;53.672;10.014;2023-06-14T11:31:50;5.10;;;2.13;;
29362;SDS011;16349;53.672;10.014;2023-06-14T11:34:18;4.13;;;2.03;;
29362;SDS011;16349;53.672;10.014;2023-06-14T11:36:46;2.58;;;2.40;;
29362;SDS011;16349;53.672;10.014;2023-06-14T11:39:13;2.47;;;2.10;;
29362;SDS011;16349;53.672;10.014;2023-06-14T11:41:41;6.05;;;2.42;;
29362;SDS011;16349;53.672;10.014;2023-06-14T11:44:09;4.47;;;2.05;;
29362;SDS011;16349;53.672;10.014;2023-06-14T11:46:37;3.78;;;2.22;;
29362;SDS011;16349;53.672;10.014;2023-06-14T11:49:04;2.35;;;2.15;;
29362;SDS011;16349;53.672;10.014;2023-06-14T11:51:35;2.50;;;1.80;;
29362;SDS011;16349;53.672;10.014;2023-06-14T11:54:03;4.40;;;2.35;;
29362;SDS011;16349;53.672;10.014;2023-06-14T11:56:32;3.72;;;2.05;;
29362;SDS011;16349;53.672;10.014;2023-06-14T11:58:59;2.55;;;2.33;;
29362;SDS011;16349;53.672;10.014;2023-06-14T12:01:26;5.90;;;2.30;;
29362;SDS011;16349;53.672;10.014;2023-06-14T12:03:53;5.15;;;2.75;;
29362;SDS011;16349;53.672;10.014;2023-06-14T12:06:27;3.75;;;3.45;;
29362;SDS011;16349;53.672;10.014;2023-06-14T12:08:59;4.35;;;2.60;;
29362;SDS011;16349;53.672;10.014;2023-06-14T12:11:31;2.78;;;2.13;;
29362;SDS011;16349;53.672;10.014;2023-06-14T12:13:59;3.85;;;2.08;;
29362;SDS011;16349;53.672;10.014;2023-06-14T12:16:30;3.03;;;2.17;;
29362;SDS011;16349;53.672;10.014;2023-06-14T12:18:59;2.28;;;2.00;;
29362;SDS011;16349;53.672;10.014;2023-06-14T12:21:27;6.72;;;2.45;;
29362;SDS011;16349;53.672;10.014;2023-06-14T12:23:54;2.63;;;2.20;;
29362;SDS011;16349;53.672;10.014;2023-06-14T12:26:22;3.45;;;2.28;;
29362;SDS011;16349;53.672;10.014;2023-06-14T12:28:52;3.58;;;2.55;;
29362;SDS011;16349;53.672;10.014;2023-06-14T12:31:19;4.05;;;2.38;;
29362;SDS011;16349;53.672;10.014;2023-06-14T12:33:46;3.42;;;2.22;;
29362;SDS011;16349;53.672;10.014;2023-06-14T12:36:15;3.45;;;2.22;;
29362;SDS011;16349;53.672;10.014;2023-06-14T12:38:42;4.70;;;2.55;;
29362;SDS011;16349;53.672;10.014;2023-06-14T12:41:09;4.40;;;2.30;;
29362;SDS011;16349;53.672;10.014;2023-06-14T12:43:37;2.65;;;2.22;;
29362;SDS011;16349;53.672;10.014;2023-06-14T12:46:04;3.25;;;1.92;;
29362;SDS011;16349;53.672;10.014;2023-06-14T12:48:31;2.78;;;2.58;;
29362;SDS011;16349;53.672;10.014;2023-06-14T12:50:59;3.20;;;1.83;;
29362;SDS011;16349;53.672;10.014;2023-06-14T12:53:26;3.72;;;2.40;;
29362;SDS011;16349;53.672;10.014;2023-06-14T12:55:53;6.30;;;2.60;;
29362;SDS011;16349;53.672;10.014;2023-06-14T12:58:19;3.92;;;2.20;;
29362;SDS011;16349;53.672;10.014;2023-06-14T13:00:50;3.72;;;2.10;;
29362;SDS011;16349;53.672;10.014;2023-06-14T13:03:17;4.50;;;2.20;;
29362;SDS011;16349;53.672;10.014;2023-06-14T13:05:44;2.70;;;2.50;;
29362;SDS011;16349;53.672;10.014;2023-06-14T13:08:12;5.28;;;2.42;;
29362;SDS011;16349;53.672;10.014;2023-06-14T13:10:39;2.08;;;1.98;;
29362;SDS011;16349;53.672;10.014;2023-06-14T13:13:06;7.70;;;2.85;;
29362;SDS011;16349;53.672;10.014;2023-06-14T13:15:33;2.40;;;2.00;;
29362;SDS011;16349;53.672;10.014;2023-06-14T13:18:01;3.03;;;2.28;;
29362;SDS011;16349;53.672;10.014;2023-06-14T13:20:28;3.08;;;2.08;;
29362;SDS011;16349;53.672;10.014;2023-06-14T13:22:55;2.92;;;2.10;;
29362;SDS011;16349;53.672;10.014;2023-06-14T13:25:22;3.20;;;2.33;;
29362;SDS011;16349;53.672;10.014;2023-06-14T13:27:49;2.85;;;2.65;;
29362;SDS011;16349;53.672;10.014;2023-06-14T13:30:16;3.22;;;2.50;;
29362;SDS011;16349;53.672;10.014;2023-06-14T13:32:43;3.90;;;1.95;;
29362;SDS011;16349;53.672;10.014;2023-06-14T13:35:11;4.47;;;2.25;;
29362;SDS011;16349;53.672;10.014;2023-06-14T13:37:38;1.98;;;1.80;;
29362;SDS011;16349;53.672;10.014;2023-06-14T13:40:06;2.17;;;1.98;;
29362;SDS011;16349;53.672;10.014;2023-06-14T13:42:33;3.30;;;2.08;;
29362;SDS011;16349;53.672;10.014;2023-06-14T13:45:01;1.92;;;1.70;;
29362;SDS011;16349;53.672;10.014;2023-06-14T13:47:29;2.25;;;1.95;;
29362;SDS011;16349;53.672;10.014;2023-06-14T13:49:56;7.20;;;2.30;;
29362;SDS011;16349;53.672;10.014;2023-06-14T13:52:24;2.97;;;2.03;;
29362;SDS011;16349;53.672;10.014;2023-06-14T13:54:52;5.43;;;2.05;;
29362;SDS011;16349;53.672;10.014;2023-06-14T13:57:19;4.28;;;2.05;;
29362;SDS011;16349;53.672;10.014;2023-06-14T13:59:47;2.95;;;2.05;;
29362;SDS011;16349;53.672;10.014;2023-06-14T14:02:14;3.50;;;1.85;;
29362;SDS011;16349;53.672;10.014;2023-06-14T14:04:41;3.85;;;2.00;;
29362;SDS011;16349;53.672;10.014;2023-06-14T14:07:09;4.20;;;2.40;;
29362;SDS011;16349;53.672;10.014;2023-06-14T14:09:38;5.35;;;2.30;;
29362;SDS011;16349;53.672;10.014;2023-06-14T14:12:06;3.38;;;2.25;;
29362;SDS011;16349;53.672;10.014;2023-06-14T14:14:33;4.10;;;2.33;;
29362;SDS011;16349;53.672;10.014;2023-06-14T14:17:00;5.85;;;2.33;;
29362;SDS011;16349;53.672;10.014;2023-06-14T14:19:27;2.63;;;2.15;;
29362;SDS011;16349;53.672;10.014;2023-06-14T14:21:54;2.35;;;2.10;;
29362;SDS011;16349;53.672;10.014;2023-06-14T14:24:21;3.60;;;2.15;;
29362;SDS011;16349;53.672;10.014;2023-06-14T14:26:50;3.10;;;1.77;;
29362;SDS011;16349;53.672;10.014;2023-06-14T14:29:18;3.28;;;2.40;;
29362;SDS011;16349;53.672;10.014;2023-06-14T14:31:46;4.35;;;2.20;;
29362;SDS011;16349;53.672;10.014;2023-06-14T14:34:13;3.08;;;1.95;;
29362;SDS011;16349;53.672;10.014;2023-06-14T14:36:40;7.88;;;1.98;;
29362;SDS011;16349;53.672;10.014;2023-06-14T14:39:07;3.10;;;1.77;;
29362;SDS011;16349;53.672;10.014;2023-06-14T14:41:34;3.53;;;2.13;;
29362;SDS011;16349;53.672;10.014;2023-06-14T14:44:04;2.15;;;1.95;;
29362;SDS011;16349;53.672;10.014;2023-06-14T14:46:31;4.45;;;1.95;;